sensor_id;sensor_type;location;lat;lon;timestamp;P1;durP1;ratioP1;P2;durP2;ratioP2
12367;SDS011;6248;49.812;6.620;2023-02-18T00:01:25;4.20;;;3.80;;
12367;SDS011;6248;49.812;6.620;2023-02-18T00:03:54;5.50;;;4.40;;
12367;SDS011;6248;49.812;6.620;2023-02-18T00:06:21;3.47;;;3.20;;
12367;SDS011;6248;49.812;6.620;2023-02-18T00:08:50;4.20;;;2.90;;
12367;SDS011;6248;49.812;6.620;2023-02-18T00:11:18;3.77;;;3.47;;
12367;SDS011;6248;49.812;6.620;2023-02-18T00:13:48;3.40;;;3.20;;
12367;SDS011;6248;49.812;6.620;2023-02-18T00:16:15;3.47;;;3.20;;
12367;SDS011;6248;49.812;6.620;2023-02-18T00:18:42;4.30;;;3.03;;
12367;SDS011;6248;49.812;6.620;2023-02-18T00:21:09;3.63;;;3.40;;
12367;SDS011;6248;49.812;6.620;2023-02-18T00:23:37;3.90;;;3.60;;
12367;SDS011;6248;49.812;6.620;2023-02-18T00:26:06;3.63;;;3.33;;
12367;SDS011;6248;49.812;6.620;2023-02-18T00:28:33;5.97;;;3.70;;
12367;SDS011;6248;49.812;6.620;2023-02-18T00:31:04;4.50;;;4.10;;
12367;SDS011;6248;49.812;6.620;2023-02-18T00:33:31;4.50;;;4.07;;
12367;SDS011;6248;49.812;6.620;2023-02-18T00:36:00;5.00;;;4.43;;
12367;SDS011;6248;49.812;6.620;2023-02-18T00:38:27;4.40;;;4.10;;
12367;SDS011;6248;49.812;6.620;2023-02-18T00:40:54;4.63;;;4.23;;
12367;SDS011;6248;49.812;6.620;2023-02-18T00:43:22;4.97;;;4.57;;
12367;SDS011;6248;49.812;6.620;2023-02-18T00:45:50;5.10;;;4.57;;
12367;SDS011;6248;49.812;6.620;2023-02-18T00:48:17;5.47;;;4.50;;
12367;SDS011;6248;49.812;6.620;2023-02-18T00:50:44;5.07;;;4.57;;
12367;SDS011;6248;49.812;6.620;2023-02-18T00:53:12;6.33;;;4.90;;
12367;SDS011;6248;49.812;6.620;2023-02-18T00:55:39;5.10;;;4.60;;
12367;SDS011;6248;49.812;6.620;2023-02-18T00:58:06;5.07;;;4.63;;
12367;SDS011;6248;49.812;6.620;2023-02-18T01:00:35;5.20;;;4.70;;
12367;SDS011;6248;49.812;6.620;2023-02-18T01:03:02;5.00;;;4.60;;
12367;SDS011;6248;49.812;6.620;2023-02-18T01:05:30;6.17;;;4.37;;
12367;SDS011;6248;49.812;6.620;2023-02-18T01:07:57;4.77;;;4.37;;
12367;SDS011;6248;49.812;6.620;2023-02-18T01:10:24;4.97;;;4.50;;
12367;SDS011;6248;49.812;6.620;2023-02-18T01:12:52;4.40;;;4.00;;
12367;SDS011;6248;49.812;6.620;2023-02-18T01:15:19;4.53;;;4.10;;
12367;SDS011;6248;49.812;6.620;2023-02-18T01:17:48;4.57;;;4.17;;
12367;SDS011;6248;49.812;6.620;2023-02-18T01:20:16;4.17;;;3.77;;
12367;SDS011;6248;49.812;6.620;2023-02-18T01:22:43;4.50;;;4.13;;
12367;SDS011;6248;49.812;6.620;2023-02-18T01:25:11;5.17;;;4.27;;
12367;SDS011;6248;49.812;6.620;2023-02-18T01:27:38;4.40;;;3.77;;
12367;SDS011;6248;49.812;6.620;2023-02-18T01:30:06;3.87;;;3.53;;
12367;SDS011;6248;49.812;6.620;2023-02-18T01:32:33;5.30;;;4.10;;
12367;SDS011;6248;49.812;6.620;2023-02-18T01:35:02;4.40;;;3.70;;
12367;SDS011;6248;49.812;6.620;2023-02-18T01:37:30;3.70;;;3.40;;
12367;SDS011;6248;49.812;6.620;2023-02-18T01:39:58;4.10;;;3.80;;
12367;SDS011;6248;49.812;6.620;2023-02-18T01:42:26;3.93;;;3.57;;
12367;SDS011;6248;49.812;6.620;2023-02-18T01:44:53;4.10;;;3.70;;
12367;SDS011;6248;49.812;6.620;2023-02-18T01:47:20;4.20;;;3.90;;
12367;SDS011;6248;49.812;6.620;2023-02-18T01:49:48;4.07;;;3.67;;
12367;SDS011;6248;49.812;6.620;2023-02-18T01:52:19;3.90;;;3.60;;
12367;SDS011;6248;49.812;6.620;2023-02-18T01:54:48;4.10;;;3.80;;
12367;SDS011;6248;49.812;6.620;2023-02-18T01:57:16;4.10;;;3.80;;
12367;SDS011;6248;49.812;6.620;2023-02-18T01:59:45;3.90;;;3.60;;
12367;SDS011;6248;49.812;6.620;2023-02-18T02:02:13;4.10;;;3.80;;
12367;SDS011;6248;49.812;6.620;2023-02-18T02:04:41;4.17;;;3.83;;
12367;SDS011;6248;49.812;6.620;2023-02-18T02:07:08;3.87;;;3.60;;
12367;SDS011;6248;49.812;6.620;2023-02-18T02:09:37;4.00;;;3.70;;
12367;SDS011;6248;49.812;6.620;2023-02-18T02:12:13;3.50;;;3.30;;
12367;SDS011;6248;49.812;6.620;2023-02-18T02:14:47;3.30;;;3.10;;
12367;SDS011;6248;49.812;6.620;2023-02-18T02:17:19;3.70;;;3.40;;
12367;SDS011;6248;49.812;6.620;2023-02-18T02:20:04;3.57;;;3.30;;
12367;SDS011;6248;49.812;6.620;2023-02-18T02:25:26;3.23;;;3.03;;
12367;SDS011;6248;49.812;6.620;2023-02-18T02:30:46;3.10;;;2.90;;
12367;SDS011;6248;49.812;6.620;2023-02-18T02:36:07;3.20;;;3.00;;
12367;SDS011;6248;49.812;6.620;2023-02-18T02:38:39;3.30;;;3.00;;
12367;SDS011;6248;49.812;6.620;2023-02-18T02:41:12;3.20;;;3.00;;
12367;SDS011;6248;49.812;6.620;2023-02-18T02:43:45;3.30;;;3.10;;
12367;SDS011;6248;49.812;6.620;2023-02-18T02:46:18;3.73;;;3.43;;
12367;SDS011;6248;49.812;6.620;2023-02-18T02:48:48;3.00;;;2.80;;
12367;SDS011;6248;49.812;6.620;2023-02-18T02:51:19;3.20;;;3.00;;
12367;SDS011;6248;49.812;6.620;2023-02-18T02:53:49;3.27;;;3.07;;
12367;SDS011;6248;49.812;6.620;2023-02-18T02:56:17;3.30;;;3.10;;
12367;SDS011;6248;49.812;6.620;2023-02-18T02:58:46;3.20;;;3.00;;
12367;SDS011;6248;49.812;6.620;2023-02-18T03:01:24;3.40;;;3.20;;
12367;SDS011;6248;49.812;6.620;2023-02-18T03:04:03;3.37;;;3.10;;
12367;SDS011;6248;49.812;6.620;2023-02-18T03:06:37;3.53;;;3.20;;
12367;SDS011;6248;49.812;6.620;2023-02-18T03:09:08;3.00;;;2.80;;
12367;SDS011;6248;49.812;6.620;2023-02-18T03:11:39;3.10;;;2.90;;
12367;SDS011;6248;49.812;6.620;2023-02-18T03:14:08;2.70;;;2.50;;
12367;SDS011;6248;49.812;6.620;2023-02-18T03:16:39;2.20;;;2.10;;
12367;SDS011;6248;49.812;6.620;2023-02-18T03:19:11;2.40;;;2.30;;
12367;SDS011;6248;49.812;6.620;2023-02-18T03:21:42;2.27;;;2.17;;
12367;SDS011;6248;49.812;6.620;2023-02-18T03:24:11;2.17;;;2.07;;
12367;SDS011;6248;49.812;6.620;2023-02-18T03:26:41;2.10;;;2.00;;
12367;SDS011;6248;49.812;6.620;2023-02-18T03:29:10;1.90;;;1.80;;
12367;SDS011;6248;49.812;6.620;2023-02-18T03:31:38;2.10;;;2.00;;
12367;SDS011;6248;49.812;6.620;2023-02-18T03:34:08;1.80;;;1.70;;
12367;SDS011;6248;49.812;6.620;2023-02-18T03:36:36;1.90;;;1.80;;
12367;SDS011;6248;49.812;6.620;2023-02-18T03:39:06;1.93;;;1.83;;
12367;SDS011;6248;49.812;6.620;2023-02-18T03:41:33;1.80;;;1.70;;
12367;SDS011;6248;49.812;6.620;2023-02-18T03:44:03;1.90;;;1.80;;
12367;SDS011;6248;49.812;6.620;2023-02-18T03:46:30;1.60;;;1.50;;
12367;SDS011;6248;49.812;6.620;2023-02-18T03:48:58;1.60;;;1.50;;
12367;SDS011;6248;49.812;6.620;2023-02-18T03:51:25;1.60;;;1.50;;
12367;SDS011;6248;49.812;6.620;2023-02-18T03:53:52;2.80;;;1.57;;
12367;SDS011;6248;49.812;6.620;2023-02-18T03:56:21;1.43;;;1.10;;
12367;SDS011;6248;49.812;6.620;2023-02-18T03:58:48;1.27;;;1.23;;
12367;SDS011;6248;49.812;6.620;2023-02-18T04:01:15;1.93;;;1.33;;
12367;SDS011;6248;49.812;6.620;2023-02-18T04:03:42;1.60;;;1.60;;
12367;SDS011;6248;49.812;6.620;2023-02-18T04:06:09;2.30;;;2.20;;
12367;SDS011;6248;49.812;6.620;2023-02-18T04:08:36;2.50;;;2.30;;
12367;SDS011;6248;49.812;6.620;2023-02-18T04:11:04;2.50;;;2.30;;
12367;SDS011;6248;49.812;6.620;2023-02-18T04:13:32;3.30;;;3.10;;
12367;SDS011;6248;49.812;6.620;2023-02-18T04:15:59;2.73;;;2.53;;
12367;SDS011;6248;49.812;6.620;2023-02-18T04:18:26;2.90;;;2.70;;
12367;SDS011;6248;49.812;6.620;2023-02-18T04:20:53;2.87;;;2.60;;
12367;SDS011;6248;49.812;6.620;2023-02-18T04:23:21;2.80;;;2.60;;
12367;SDS011;6248;49.812;6.620;2023-02-18T04:25:48;2.80;;;2.60;;
12367;SDS011;6248;49.812;6.620;2023-02-18T04:28:15;2.67;;;2.50;;
12367;SDS011;6248;49.812;6.620;2023-02-18T04:30:44;3.20;;;2.90;;
12367;SDS011;6248;49.812;6.620;2023-02-18T04:33:12;3.10;;;2.90;;
12367;SDS011;6248;49.812;6.620;2023-02-18T04:35:39;3.07;;;2.80;;
12367;SDS011;6248;49.812;6.620;2023-02-18T04:38:07;3.10;;;2.80;;
12367;SDS011;6248;49.812;6.620;2023-02-18T04:40:34;4.07;;;3.40;;
12367;SDS011;6248;49.812;6.620;2023-02-18T04:43:01;3.30;;;3.10;;
12367;SDS011;6248;49.812;6.620;2023-02-18T04:45:28;4.17;;;3.47;;
12367;SDS011;6248;49.812;6.620;2023-02-18T04:47:57;3.43;;;3.10;;
12367;SDS011;6248;49.812;6.620;2023-02-18T04:50:24;3.53;;;3.23;;
12367;SDS011;6248;49.812;6.620;2023-02-18T04:52:52;3.20;;;3.00;;
12367;SDS011;6248;49.812;6.620;2023-02-18T04:55:19;3.27;;;3.07;;
12367;SDS011;6248;49.812;6.620;2023-02-18T04:57:46;3.23;;;2.97;;
12367;SDS011;6248;49.812;6.620;2023-02-18T05:00:14;4.40;;;3.37;;
12367;SDS011;6248;49.812;6.620;2023-02-18T05:02:42;3.80;;;3.37;;
12367;SDS011;6248;49.812;6.620;2023-02-18T05:05:10;3.40;;;3.17;;
12367;SDS011;6248;49.812;6.620;2023-02-18T05:07:38;3.53;;;3.23;;
12367;SDS011;6248;49.812;6.620;2023-02-18T05:10:07;3.83;;;3.37;;
12367;SDS011;6248;49.812;6.620;2023-02-18T05:12:34;3.10;;;2.90;;
12367;SDS011;6248;49.812;6.620;2023-02-18T05:15:01;3.47;;;3.20;;
12367;SDS011;6248;49.812;6.620;2023-02-18T05:17:28;3.30;;;3.10;;
12367;SDS011;6248;49.812;6.620;2023-02-18T05:19:55;5.03;;;3.00;;
12367;SDS011;6248;49.812;6.620;2023-02-18T05:22:24;2.90;;;2.70;;
12367;SDS011;6248;49.812;6.620;2023-02-18T05:24:51;2.83;;;2.63;;
12367;SDS011;6248;49.812;6.620;2023-02-18T05:27:18;3.43;;;2.73;;
12367;SDS011;6248;49.812;6.620;2023-02-18T05:29:45;2.60;;;2.40;;
12367;SDS011;6248;49.812;6.620;2023-02-18T05:32:13;2.87;;;2.67;;
12367;SDS011;6248;49.812;6.620;2023-02-18T05:34:40;3.10;;;2.80;;
12367;SDS011;6248;49.812;6.620;2023-02-18T05:37:07;4.53;;;3.13;;
12367;SDS011;6248;49.812;6.620;2023-02-18T05:39:36;2.73;;;2.53;;
12367;SDS011;6248;49.812;6.620;2023-02-18T05:42:03;2.83;;;2.63;;
12367;SDS011;6248;49.812;6.620;2023-02-18T05:44:30;5.70;;;5.07;;
12367;SDS011;6248;49.812;6.620;2023-02-18T05:46:58;3.47;;;3.20;;
12367;SDS011;6248;49.812;6.620;2023-02-18T05:49:25;3.57;;;3.17;;
12367;SDS011;6248;49.812;6.620;2023-02-18T05:51:52;3.17;;;2.87;;
12367;SDS011;6248;49.812;6.620;2023-02-18T05:54:19;2.77;;;2.57;;
12367;SDS011;6248;49.812;6.620;2023-02-18T05:56:48;2.93;;;2.73;;
12367;SDS011;6248;49.812;6.620;2023-02-18T05:59:15;2.50;;;2.40;;
12367;SDS011;6248;49.812;6.620;2023-02-18T06:01:42;2.50;;;2.30;;
12367;SDS011;6248;49.812;6.620;2023-02-18T06:04:10;2.40;;;2.20;;
12367;SDS011;6248;49.812;6.620;2023-02-18T06:06:37;2.90;;;2.70;;
12367;SDS011;6248;49.812;6.620;2023-02-18T06:09:04;4.10;;;2.70;;
12367;SDS011;6248;49.812;6.620;2023-02-18T06:11:31;4.00;;;2.10;;
12367;SDS011;6248;49.812;6.620;2023-02-18T06:14:00;3.00;;;2.70;;
12367;SDS011;6248;49.812;6.620;2023-02-18T06:16:27;2.53;;;2.33;;
12367;SDS011;6248;49.812;6.620;2023-02-18T06:18:54;2.50;;;2.20;;
12367;SDS011;6248;49.812;6.620;2023-02-18T06:21:21;2.50;;;2.30;;
12367;SDS011;6248;49.812;6.620;2023-02-18T06:23:49;2.30;;;2.13;;
12367;SDS011;6248;49.812;6.620;2023-02-18T06:26:16;2.33;;;2.00;;
12367;SDS011;6248;49.812;6.620;2023-02-18T06:28:43;2.23;;;2.03;;
12367;SDS011;6248;49.812;6.620;2023-02-18T06:31:11;2.20;;;2.00;;
12367;SDS011;6248;49.812;6.620;2023-02-18T06:33:38;2.30;;;2.10;;
12367;SDS011;6248;49.812;6.620;2023-02-18T06:36:06;2.20;;;2.10;;
12367;SDS011;6248;49.812;6.620;2023-02-18T06:38:35;2.20;;;2.10;;
12367;SDS011;6248;49.812;6.620;2023-02-18T06:41:03;2.57;;;2.37;;
12367;SDS011;6248;49.812;6.620;2023-02-18T06:43:30;2.60;;;2.40;;
12367;SDS011;6248;49.812;6.620;2023-02-18T06:45:57;2.30;;;2.20;;
12367;SDS011;6248;49.812;6.620;2023-02-18T06:48:26;2.50;;;2.30;;
12367;SDS011;6248;49.812;6.620;2023-02-18T06:50:53;2.20;;;2.10;;
12367;SDS011;6248;49.812;6.620;2023-02-18T06:53:20;2.70;;;2.50;;
12367;SDS011;6248;49.812;6.620;2023-02-18T06:55:49;2.70;;;2.50;;
12367;SDS011;6248;49.812;6.620;2023-02-18T06:58:16;2.40;;;2.20;;
12367;SDS011;6248;49.812;6.620;2023-02-18T07:00:43;2.23;;;2.13;;
12367;SDS011;6248;49.812;6.620;2023-02-18T07:03:11;2.40;;;2.20;;
12367;SDS011;6248;49.812;6.620;2023-02-18T07:05:40;3.03;;;2.20;;
12367;SDS011;6248;49.812;6.620;2023-02-18T07:08:07;2.40;;;2.20;;
12367;SDS011;6248;49.812;6.620;2023-02-18T07:10:35;3.67;;;2.33;;
12367;SDS011;6248;49.812;6.620;2023-02-18T07:13:02;2.37;;;2.20;;
12367;SDS011;6248;49.812;6.620;2023-02-18T07:15:29;2.30;;;2.10;;
12367;SDS011;6248;49.812;6.620;2023-02-18T07:17:57;2.90;;;2.10;;
12367;SDS011;6248;49.812;6.620;2023-02-18T07:20:24;2.30;;;2.10;;
12367;SDS011;6248;49.812;6.620;2023-02-18T07:22:53;2.40;;;2.20;;
12367;SDS011;6248;49.812;6.620;2023-02-18T07:25:20;2.77;;;2.57;;
12367;SDS011;6248;49.812;6.620;2023-02-18T07:27:47;2.27;;;2.17;;
12367;SDS011;6248;49.812;6.620;2023-02-18T07:30:14;2.57;;;2.37;;
12367;SDS011;6248;49.812;6.620;2023-02-18T07:32:42;2.10;;;2.00;;
12367;SDS011;6248;49.812;6.620;2023-02-18T07:35:09;2.30;;;2.10;;
12367;SDS011;6248;49.812;6.620;2023-02-18T07:37:36;3.00;;;2.10;;
12367;SDS011;6248;49.812;6.620;2023-02-18T07:40:06;2.60;;;2.40;;
12367;SDS011;6248;49.812;6.620;2023-02-18T07:42:33;2.93;;;2.40;;
12367;SDS011;6248;49.812;6.620;2023-02-18T07:45:00;2.40;;;2.23;;
12367;SDS011;6248;49.812;6.620;2023-02-18T07:47:27;2.30;;;2.10;;
12367;SDS011;6248;49.812;6.620;2023-02-18T07:49:54;2.30;;;2.10;;
12367;SDS011;6248;49.812;6.620;2023-02-18T07:52:21;2.27;;;2.17;;
12367;SDS011;6248;49.812;6.620;2023-02-18T07:54:49;3.87;;;2.10;;
12367;SDS011;6248;49.812;6.620;2023-02-18T07:57:17;2.53;;;2.40;;
12367;SDS011;6248;49.812;6.620;2023-02-18T07:59:44;2.27;;;2.07;;
12367;SDS011;6248;49.812;6.620;2023-02-18T08:02:12;2.27;;;2.00;;
12367;SDS011;6248;49.812;6.620;2023-02-18T08:04:41;1.87;;;1.77;;
12367;SDS011;6248;49.812;6.620;2023-02-18T08:07:10;2.37;;;1.50;;
12367;SDS011;6248;49.812;6.620;2023-02-18T08:09:38;1.57;;;1.47;;
12367;SDS011;6248;49.812;6.620;2023-02-18T08:12:05;1.50;;;1.30;;
12367;SDS011;6248;49.812;6.620;2023-02-18T08:14:34;1.63;;;1.53;;
12367;SDS011;6248;49.812;6.620;2023-02-18T08:17:02;1.60;;;1.50;;
12367;SDS011;6248;49.812;6.620;2023-02-18T08:19:29;1.50;;;1.40;;
12367;SDS011;6248;49.812;6.620;2023-02-18T08:21:56;1.50;;;1.40;;
12367;SDS011;6248;49.812;6.620;2023-02-18T08:24:26;1.50;;;1.30;;
12367;SDS011;6248;49.812;6.620;2023-02-18T08:26:53;1.20;;;1.13;;
12367;SDS011;6248;49.812;6.620;2023-02-18T08:29:20;2.40;;;1.20;;
12367;SDS011;6248;49.812;6.620;2023-02-18T08:31:49;1.93;;;1.03;;
12367;SDS011;6248;49.812;6.620;2023-02-18T08:34:18;1.20;;;1.00;;
12367;SDS011;6248;49.812;6.620;2023-02-18T08:36:45;1.20;;;1.00;;
12367;SDS011;6248;49.812;6.620;2023-02-18T08:39:12;1.17;;;1.00;;
12367;SDS011;6248;49.812;6.620;2023-02-18T08:41:39;0.87;;;0.87;;
12367;SDS011;6248;49.812;6.620;2023-02-18T08:44:06;1.10;;;1.00;;
12367;SDS011;6248;49.812;6.620;2023-02-18T08:46:34;1.80;;;1.30;;
12367;SDS011;6248;49.812;6.620;2023-02-18T08:49:02;1.17;;;1.10;;
12367;SDS011;6248;49.812;6.620;2023-02-18T08:51:29;2.47;;;1.20;;
12367;SDS011;6248;49.812;6.620;2023-02-18T08:53:56;1.53;;;1.40;;
12367;SDS011;6248;49.812;6.620;2023-02-18T08:56:24;1.30;;;1.20;;
12367;SDS011;6248;49.812;6.620;2023-02-18T08:58:51;1.70;;;1.60;;
12367;SDS011;6248;49.812;6.620;2023-02-18T09:01:18;1.20;;;1.20;;
12367;SDS011;6248;49.812;6.620;2023-02-18T09:03:45;4.17;;;1.50;;
12367;SDS011;6248;49.812;6.620;2023-02-18T09:06:14;1.60;;;1.50;;
12367;SDS011;6248;49.812;6.620;2023-02-18T09:08:42;2.00;;;1.50;;
12367;SDS011;6248;49.812;6.620;2023-02-18T09:11:09;2.80;;;1.20;;
12367;SDS011;6248;49.812;6.620;2023-02-18T09:13:36;2.23;;;1.43;;
12367;SDS011;6248;49.812;6.620;2023-02-18T09:16:04;3.07;;;1.40;;
12367;SDS011;6248;49.812;6.620;2023-02-18T09:18:32;2.83;;;1.73;;
12367;SDS011;6248;49.812;6.620;2023-02-18T09:21:00;3.20;;;1.70;;
12367;SDS011;6248;49.812;6.620;2023-02-18T09:23:29;1.80;;;1.40;;
12367;SDS011;6248;49.812;6.620;2023-02-18T09:25:56;1.80;;;1.50;;
12367;SDS011;6248;49.812;6.620;2023-02-18T09:28:24;2.77;;;1.87;;
12367;SDS011;6248;49.812;6.620;2023-02-18T09:30:51;2.30;;;1.80;;
12367;SDS011;6248;49.812;6.620;2023-02-18T09:33:18;2.73;;;2.40;;
12367;SDS011;6248;49.812;6.620;2023-02-18T09:35:45;3.67;;;2.47;;
12367;SDS011;6248;49.812;6.620;2023-02-18T09:38:13;3.00;;;2.20;;
12367;SDS011;6248;49.812;6.620;2023-02-18T09:40:43;2.10;;;2.00;;
12367;SDS011;6248;49.812;6.620;2023-02-18T09:43:12;2.70;;;2.17;;
12367;SDS011;6248;49.812;6.620;2023-02-18T09:45:43;3.33;;;2.00;;
12367;SDS011;6248;49.812;6.620;2023-02-18T09:48:10;2.73;;;1.80;;
12367;SDS011;6248;49.812;6.620;2023-02-18T09:50:37;3.30;;;1.87;;
12367;SDS011;6248;49.812;6.620;2023-02-18T09:53:04;2.20;;;1.93;;
12367;SDS011;6248;49.812;6.620;2023-02-18T09:55:32;2.77;;;1.90;;
12367;SDS011;6248;49.812;6.620;2023-02-18T09:58:05;2.20;;;1.97;;
12367;SDS011;6248;49.812;6.620;2023-02-18T10:00:34;3.13;;;2.13;;
12367;SDS011;6248;49.812;6.620;2023-02-18T10:03:03;4.47;;;2.03;;
12367;SDS011;6248;49.812;6.620;2023-02-18T10:05:31;2.80;;;1.60;;
12367;SDS011;6248;49.812;6.620;2023-02-18T10:07:59;2.80;;;1.73;;
12367;SDS011;6248;49.812;6.620;2023-02-18T10:10:30;5.60;;;1.80;;
12367;SDS011;6248;49.812;6.620;2023-02-18T10:13:00;1.63;;;1.40;;
12367;SDS011;6248;49.812;6.620;2023-02-18T10:15:30;2.73;;;1.70;;
12367;SDS011;6248;49.812;6.620;2023-02-18T10:17:57;1.93;;;1.73;;
12367;SDS011;6248;49.812;6.620;2023-02-18T10:20:25;2.90;;;1.70;;
12367;SDS011;6248;49.812;6.620;2023-02-18T10:22:53;2.77;;;1.70;;
12367;SDS011;6248;49.812;6.620;2023-02-18T10:25:22;3.47;;;1.57;;
12367;SDS011;6248;49.812;6.620;2023-02-18T10:27:50;2.83;;;1.60;;
12367;SDS011;6248;49.812;6.620;2023-02-18T10:30:21;2.97;;;1.60;;
12367;SDS011;6248;49.812;6.620;2023-02-18T10:32:50;3.07;;;1.70;;
12367;SDS011;6248;49.812;6.620;2023-02-18T10:35:22;1.70;;;1.40;;
12367;SDS011;6248;49.812;6.620;2023-02-18T10:37:55;3.53;;;1.60;;
12367;SDS011;6248;49.812;6.620;2023-02-18T10:40:26;2.80;;;1.73;;
12367;SDS011;6248;49.812;6.620;2023-02-18T10:42:59;4.37;;;1.70;;
12367;SDS011;6248;49.812;6.620;2023-02-18T10:45:32;1.67;;;1.53;;
12367;SDS011;6248;49.812;6.620;2023-02-18T10:48:07;2.87;;;1.60;;
12367;SDS011;6248;49.812;6.620;2023-02-18T10:50:38;5.03;;;1.90;;
12367;SDS011;6248;49.812;6.620;2023-02-18T10:53:08;3.53;;;1.70;;
12367;SDS011;6248;49.812;6.620;2023-02-18T10:55:39;4.33;;;1.80;;
12367;SDS011;6248;49.812;6.620;2023-02-18T11:00:48;1.73;;;1.40;;
12367;SDS011;6248;49.812;6.620;2023-02-18T11:03:18;2.47;;;1.43;;
12367;SDS011;6248;49.812;6.620;2023-02-18T11:05:46;3.63;;;1.63;;
12367;SDS011;6248;49.812;6.620;2023-02-18T11:08:15;5.30;;;1.90;;
12367;SDS011;6248;49.812;6.620;2023-02-18T11:10:44;1.90;;;1.60;;
12367;SDS011;6248;49.812;6.620;2023-02-18T11:13:12;3.67;;;1.70;;
12367;SDS011;6248;49.812;6.620;2023-02-18T11:15:52;3.87;;;1.83;;
12367;SDS011;6248;49.812;6.620;2023-02-18T11:18:26;3.17;;;1.83;;
12367;SDS011;6248;49.812;6.620;2023-02-18T11:20:55;3.87;;;1.80;;
12367;SDS011;6248;49.812;6.620;2023-02-18T11:23:22;4.43;;;1.63;;
12367;SDS011;6248;49.812;6.620;2023-02-18T11:25:59;4.03;;;1.70;;
12367;SDS011;6248;49.812;6.620;2023-02-18T11:28:33;2.10;;;1.70;;
12367;SDS011;6248;49.812;6.620;2023-02-18T11:31:03;2.43;;;1.80;;
12367;SDS011;6248;49.812;6.620;2023-02-18T11:33:33;2.63;;;1.90;;
12367;SDS011;6248;49.812;6.620;2023-02-18T11:36:04;2.73;;;2.20;;
12367;SDS011;6248;49.812;6.620;2023-02-18T11:38:40;2.27;;;2.00;;
12367;SDS011;6248;49.812;6.620;2023-02-18T11:41:09;6.50;;;2.10;;
12367;SDS011;6248;49.812;6.620;2023-02-18T11:43:39;4.23;;;1.90;;
12367;SDS011;6248;49.812;6.620;2023-02-18T11:46:07;4.13;;;2.00;;
12367;SDS011;6248;49.812;6.620;2023-02-18T11:48:36;2.43;;;1.87;;
12367;SDS011;6248;49.812;6.620;2023-02-18T11:51:03;2.50;;;2.00;;
12367;SDS011;6248;49.812;6.620;2023-02-18T11:53:31;3.40;;;2.47;;
12367;SDS011;6248;49.812;6.620;2023-02-18T11:55:58;3.27;;;1.93;;
12367;SDS011;6248;49.812;6.620;2023-02-18T11:58:26;3.43;;;2.10;;
12367;SDS011;6248;49.812;6.620;2023-02-18T12:00:54;3.23;;;1.97;;
12367;SDS011;6248;49.812;6.620;2023-02-18T12:03:25;3.30;;;2.07;;
12367;SDS011;6248;49.812;6.620;2023-02-18T12:05:55;4.47;;;2.03;;
12367;SDS011;6248;49.812;6.620;2023-02-18T12:08:23;2.00;;;1.80;;
12367;SDS011;6248;49.812;6.620;2023-02-18T12:10:52;2.83;;;1.90;;
12367;SDS011;6248;49.812;6.620;2023-02-18T12:13:22;2.37;;;2.07;;
12367;SDS011;6248;49.812;6.620;2023-02-18T12:15:52;2.80;;;2.00;;
12367;SDS011;6248;49.812;6.620;2023-02-18T12:18:28;3.30;;;2.10;;
12367;SDS011;6248;49.812;6.620;2023-02-18T12:21:04;5.03;;;2.20;;
12367;SDS011;6248;49.812;6.620;2023-02-18T12:23:33;4.33;;;2.30;;
12367;SDS011;6248;49.812;6.620;2023-02-18T12:26:07;3.53;;;2.40;;
12367;SDS011;6248;49.812;6.620;2023-02-18T12:28:44;3.17;;;2.13;;
12367;SDS011;6248;49.812;6.620;2023-02-18T12:31:24;2.07;;;1.80;;
12367;SDS011;6248;49.812;6.620;2023-02-18T12:33:57;2.50;;;2.00;;
12367;SDS011;6248;49.812;6.620;2023-02-18T12:36:30;2.00;;;1.80;;
12367;SDS011;6248;49.812;6.620;2023-02-18T12:39:02;2.07;;;1.93;;
12367;SDS011;6248;49.812;6.620;2023-02-18T12:41:32;4.03;;;1.97;;
12367;SDS011;6248;49.812;6.620;2023-02-18T12:44:05;3.67;;;1.87;;
12367;SDS011;6248;49.812;6.620;2023-02-18T12:46:39;3.97;;;2.00;;
12367;SDS011;6248;49.812;6.620;2023-02-18T12:49:21;5.60;;;1.80;;
12367;SDS011;6248;49.812;6.620;2023-02-18T12:51:56;3.17;;;1.90;;
12367;SDS011;6248;49.812;6.620;2023-02-18T12:54:31;4.77;;;2.17;;
12367;SDS011;6248;49.812;6.620;2023-02-18T12:57:11;3.10;;;1.90;;
12367;SDS011;6248;49.812;6.620;2023-02-18T12:59:52;6.13;;;1.70;;
12367;SDS011;6248;49.812;6.620;2023-02-18T13:02:26;2.80;;;1.73;;
12367;SDS011;6248;49.812;6.620;2023-02-18T13:05:00;3.20;;;1.80;;
12367;SDS011;6248;49.812;6.620;2023-02-18T13:07:35;2.50;;;1.90;;
12367;SDS011;6248;49.812;6.620;2023-02-18T13:12:47;2.80;;;1.73;;
12367;SDS011;6248;49.812;6.620;2023-02-18T13:15:17;2.97;;;1.50;;
12367;SDS011;6248;49.812;6.620;2023-02-18T13:17:45;4.67;;;2.10;;
12367;SDS011;6248;49.812;6.620;2023-02-18T13:20:16;3.90;;;1.93;;
12367;SDS011;6248;49.812;6.620;2023-02-18T13:22:46;2.80;;;1.90;;
12367;SDS011;6248;49.812;6.620;2023-02-18T13:25:14;2.73;;;2.00;;
12367;SDS011;6248;49.812;6.620;2023-02-18T13:27:42;3.10;;;1.70;;
12367;SDS011;6248;49.812;6.620;2023-02-18T13:30:18;2.47;;;1.80;;
12367;SDS011;6248;49.812;6.620;2023-02-18T13:32:50;3.23;;;2.00;;
12367;SDS011;6248;49.812;6.620;2023-02-18T13:35:20;2.63;;;1.93;;
12367;SDS011;6248;49.812;6.620;2023-02-18T13:37:53;2.50;;;1.90;;
12367;SDS011;6248;49.812;6.620;2023-02-18T13:40:24;3.00;;;2.13;;
12367;SDS011;6248;49.812;6.620;2023-02-18T13:42:54;2.77;;;1.97;;
12367;SDS011;6248;49.812;6.620;2023-02-18T13:45:36;2.97;;;2.07;;
12367;SDS011;6248;49.812;6.620;2023-02-18T13:48:05;2.77;;;2.20;;
12367;SDS011;6248;49.812;6.620;2023-02-18T13:50:47;2.30;;;2.10;;
12367;SDS011;6248;49.812;6.620;2023-02-18T13:53:27;3.20;;;2.50;;
12367;SDS011;6248;49.812;6.620;2023-02-18T13:55:56;3.53;;;2.50;;
12367;SDS011;6248;49.812;6.620;2023-02-18T13:58:25;3.20;;;1.90;;
12367;SDS011;6248;49.812;6.620;2023-02-18T14:00:54;3.30;;;2.30;;
12367;SDS011;6248;49.812;6.620;2023-02-18T14:06:20;3.80;;;2.40;;
12367;SDS011;6248;49.812;6.620;2023-02-18T14:08:49;4.47;;;2.40;;
12367;SDS011;6248;49.812;6.620;2023-02-18T14:19:26;4.00;;;2.50;;
12367;SDS011;6248;49.812;6.620;2023-02-18T14:21:59;2.40;;;2.20;;
12367;SDS011;6248;49.812;6.620;2023-02-18T14:24:47;2.80;;;2.40;;
12367;SDS011;6248;49.812;6.620;2023-02-18T14:27:15;4.60;;;2.20;;
12367;SDS011;6248;49.812;6.620;2023-02-18T14:29:42;4.00;;;2.50;;
12367;SDS011;6248;49.812;6.620;2023-02-18T14:32:10;4.67;;;2.33;;
12367;SDS011;6248;49.812;6.620;2023-02-18T14:37:33;3.07;;;2.70;;
12367;SDS011;6248;49.812;6.620;2023-02-18T14:40:11;3.70;;;2.87;;
12367;SDS011;6248;49.812;6.620;2023-02-18T14:42:42;5.37;;;3.10;;
12367;SDS011;6248;49.812;6.620;2023-02-18T14:45:23;4.47;;;3.03;;
12367;SDS011;6248;49.812;6.620;2023-02-18T14:50:45;5.47;;;2.87;;
12367;SDS011;6248;49.812;6.620;2023-02-18T14:53:14;6.10;;;2.90;;
12367;SDS011;6248;49.812;6.620;2023-02-18T14:55:45;3.97;;;2.70;;
12367;SDS011;6248;49.812;6.620;2023-02-18T14:58:23;7.60;;;3.20;;
12367;SDS011;6248;49.812;6.620;2023-02-18T15:00:51;4.43;;;2.90;;
12367;SDS011;6248;49.812;6.620;2023-02-18T15:03:19;4.47;;;2.90;;
12367;SDS011;6248;49.812;6.620;2023-02-18T15:05:47;5.47;;;3.03;;
12367;SDS011;6248;49.812;6.620;2023-02-18T15:08:16;4.30;;;3.07;;
12367;SDS011;6248;49.812;6.620;2023-02-18T15:10:47;4.07;;;3.20;;
12367;SDS011;6248;49.812;6.620;2023-02-18T15:13:16;4.93;;;3.70;;
12367;SDS011;6248;49.812;6.620;2023-02-18T15:15:44;5.67;;;3.43;;
12367;SDS011;6248;49.812;6.620;2023-02-18T15:18:17;5.40;;;3.50;;
12367;SDS011;6248;49.812;6.620;2023-02-18T15:20:46;4.20;;;3.50;;
12367;SDS011;6248;49.812;6.620;2023-02-18T15:23:14;5.27;;;3.40;;
12367;SDS011;6248;49.812;6.620;2023-02-18T15:25:43;7.30;;;4.10;;
12367;SDS011;6248;49.812;6.620;2023-02-18T15:28:21;4.07;;;3.60;;
12367;SDS011;6248;49.812;6.620;2023-02-18T15:30:48;5.23;;;3.77;;
12367;SDS011;6248;49.812;6.620;2023-02-18T15:33:17;5.70;;;3.47;;
12367;SDS011;6248;49.812;6.620;2023-02-18T15:35:44;6.67;;;3.90;;
12367;SDS011;6248;49.812;6.620;2023-02-18T15:38:13;5.47;;;3.80;;
12367;SDS011;6248;49.812;6.620;2023-02-18T15:40:41;5.57;;;3.80;;
12367;SDS011;6248;49.812;6.620;2023-02-18T15:43:11;8.33;;;4.10;;